AIRPORT ID: AZ82

DATE: 2021-12-09 ZULU TIME: 1.15 LOCAL TIME: 18.15


METAR AZ82 090115Z AUTO 20011G17KT 06/M07 A3000

ALTIMETER: A3000 Q1016

DENSITY ALT: 7000 Ft

WIND DIRECT: 220

WIND SPEED: 11 Gust

WIND CONDITIONS:

VISIBILTY: Not Available

TEMPERATURE: 43 F 6 C

DEW POINT: 19 F -7 C

HUMID: 39%

LCL: 3,000-5,000 feet

RADIO CHECK: 1

ADVISARIES: 0

GREETINGS: 0

CONVERSATIONS: 0